Purdin, Missouri
Current Conditions -  °F | °C
As of 5:55 PM on Tuesday 25 Nov 2014 (Local Time) from KIRK Reporting Station
Clear Clear  
Wind Chill: 23°   Ceiling: Unl
Heat Index: 29°   Visibility: 10mi
Dew Point: 17°   Wind: 6mph
Humidity: 61%   Direction: 190°S
Pressure: 30.11"   Gusts: NA
Location:  39.95°N, 93.17°W
Report Text: KIRK 252355Z AUTO 19005KT 10SM CLR M02/M08 A3011 RMK AO2 SLP213 T10171083 10022 21017 56005
Loading
Personal Weather Stations






























Interactive Weather Map New forecast layout! Learn more

10-Day Weather Forecast

Advertisements
Track Severe Weather on mobile